Time;durP1;ratioP1;P1;durP2;ratioP2;P2;SDS_P1;SDS_P2;PMS_P1;PMS_P2;Temp;Humidity;BMP_temperature;BMP_pressure;BME280_temperature;BME280_humidity;BME280_pressure;Samples;Min_cycle;Max_cycle;Signal;HPM_P1;HPM_P2
2020/12/12 00:00:16;;;;;;;89.03;33.03;;;3.50;99.90;;;;;;5110327;28;20646;-88
2020/12/12 00:02:41;;;;;;;80.93;29.27;;;3.50;99.90;;;;;;5110449;28;20946;-88
2020/12/12 00:05:07;;;;;;;77.77;29.20;;;3.50;99.90;;;;;;5110377;28;20699;-88
2020/12/12 00:07:36;;;;;;;74.27;30.00;;;3.50;99.90;;;;;;5109659;28;20275;-88
2020/12/12 00:10:04;;;;;;;77.55;31.55;;;3.50;99.90;;;;;;5109483;28;21052;-87
2020/12/12 00:12:30;;;;;;;75.78;30.05;;;3.50;99.90;;;;;;5109065;28;20308;-87
2020/12/12 00:15:05;;;;;;;81.90;31.27;;;3.50;99.90;;;;;;5109818;28;20666;-87
2020/12/12 00:17:39;;;;;;;74.07;26.63;;;3.50;99.90;;;;;;5110336;28;20186;-88
2020/12/12 00:20:05;;;;;;;68.20;27.52;;;3.50;99.90;;;;;;5110791;28;20183;-88
2020/12/12 00:22:31;;;;;;;65.00;24.33;;;3.50;99.90;;;;;;5111554;28;20180;-87
2020/12/12 00:24:56;;;;;;;68.73;27.40;;;3.40;99.90;;;;;;5110125;28;20187;-88
2020/12/12 00:27:22;;;;;;;69.93;26.20;;;3.50;99.90;;;;;;5109271;28;20275;-88
2020/12/12 00:29:51;;;;;;;63.73;25.23;;;3.50;99.90;;;;;;5109449;28;20191;-88
2020/12/12 00:32:31;;;;;;;69.05;23.45;;;3.40;99.90;;;;;;5109617;28;20184;-88
2020/12/12 00:35:00;;;;;;;61.28;22.77;;;3.40;99.90;;;;;;5108884;28;20210;-88
2020/12/12 00:37:34;;;;;;;64.10;24.02;;;3.30;99.90;;;;;;5109312;28;20172;-88
2020/12/12 00:40:03;;;;;;;70.72;24.92;;;3.30;99.90;;;;;;5111073;28;20262;-87
2020/12/12 00:42:32;;;;;;;60.92;23.98;;;3.30;99.90;;;;;;5110764;28;20179;-88
2020/12/12 00:45:04;;;;;;;70.43;24.40;;;3.30;99.90;;;;;;5109489;28;20175;-88
2020/12/12 00:47:37;;;;;;;56.72;24.23;;;3.40;99.90;;;;;;5110001;28;20224;-88
2020/12/12 00:50:02;;;;;;;61.92;24.70;;;3.40;99.90;;;;;;5109868;28;20194;-88
2020/12/12 00:52:28;;;;;;;56.57;24.27;;;3.40;99.90;;;;;;5110023;28;20188;-87
2020/12/12 00:54:56;;;;;;;51.20;23.83;;;3.40;99.90;;;;;;5109887;28;20215;-88
2020/12/12 00:57:22;;;;;;;57.88;23.17;;;3.40;99.90;;;;;;5110568;28;20191;-88
2020/12/12 00:59:50;;;;;;;50.07;21.53;;;3.40;99.90;;;;;;5110250;28;20297;-88
2020/12/12 01:02:25;;;;;;;44.28;22.10;;;3.40;99.90;;;;;;5110858;28;20180;-88
2020/12/12 01:04:56;;;;;;;41.13;21.90;;;3.40;99.90;;;;;;5111163;28;20187;-88
2020/12/12 01:07:25;;;;;;;49.70;21.35;;;3.50;99.90;;;;;;5110545;28;20183;-87
2020/12/12 01:10:02;;;;;;;47.97;21.13;;;3.50;99.90;;;;;;5110204;28;20184;-87
2020/12/12 01:12:31;;;;;;;48.28;20.30;;;3.60;99.90;;;;;;5109602;28;20248;-88
2020/12/12 01:15:02;;;;;;;50.92;23.75;;;3.50;99.90;;;;;;5109581;28;20302;-87
2020/12/12 01:17:32;;;;;;;44.13;21.25;;;3.60;99.90;;;;;;5108642;28;20184;-87
2020/12/12 01:20:01;;;;;;;48.60;24.13;;;3.50;99.90;;;;;;5108058;28;20643;-87
2020/12/12 01:22:29;;;;;;;47.90;22.20;;;3.50;99.90;;;;;;5108829;28;20178;-87
2020/12/12 01:24:55;;;;;;;37.35;18.73;;;3.40;99.90;;;;;;5109503;28;20648;-87
2020/12/12 01:27:23;;;;;;;26.90;16.40;;;3.40;99.90;;;;;;5108018;28;20219;-88
2020/12/12 01:29:54;;;;;;;29.02;15.93;;;3.40;99.90;;;;;;5107824;28;20188;-87
2020/12/12 01:32:23;;;;;;;27.27;14.75;;;3.40;99.90;;;;;;5107322;28;20180;-87
2020/12/12 01:35:01;;;;;;;26.02;14.88;;;3.30;99.90;;;;;;5107322;28;20261;-87
2020/12/12 01:37:29;;;;;;;31.00;15.98;;;3.30;99.90;;;;;;5108707;28;20229;-87
2020/12/12 01:39:57;;;;;;;26.20;14.55;;;3.30;99.90;;;;;;5111725;28;20175;-87
2020/12/12 01:42:29;;;;;;;28.30;15.88;;;3.40;99.90;;;;;;5110943;28;20176;-87
2020/12/12 01:44:58;;;;;;;34.20;15.25;;;3.30;99.90;;;;;;5112629;28;20654;-87
2020/12/12 01:47:25;;;;;;;32.75;16.42;;;3.30;99.90;;;;;;5111082;28;20190;-87
2020/12/12 01:49:52;;;;;;;37.88;18.67;;;3.30;99.90;;;;;;5110410;28;20183;-87
2020/12/12 01:52:24;;;;;;;32.42;17.50;;;3.30;99.90;;;;;;5111960;28;20180;-88
2020/12/12 01:54:50;;;;;;;38.55;18.60;;;3.30;99.90;;;;;;5111685;28;20207;-87
2020/12/12 01:57:28;;;;;;;42.45;22.63;;;3.30;99.90;;;;;;5111317;28;20628;-87
2020/12/12 02:00:00;;;;;;;38.90;18.10;;;3.30;99.90;;;;;;5111560;28;20180;-87
2020/12/12 02:02:40;;;;;;;44.17;20.08;;;3.30;99.90;;;;;;5111380;28;20180;-87
2020/12/12 02:05:11;;;;;;;47.53;21.17;;;3.30;99.90;;;;;;5110721;28;20183;-87
2020/12/12 02:07:45;;;;;;;44.17;19.17;;;3.30;99.90;;;;;;5111515;28;20172;-87
2020/12/12 02:10:17;;;;;;;48.50;20.90;;;3.30;99.90;;;;;;5110963;28;20187;-87
2020/12/12 02:12:45;;;;;;;48.50;21.27;;;3.30;99.90;;;;;;5111141;28;20235;-87
2020/12/12 02:15:13;;;;;;;45.13;20.30;;;3.40;99.90;;;;;;5112406;28;20436;-86
2020/12/12 02:17:46;;;;;;;52.38;19.65;;;3.40;99.90;;;;;;5112339;28;20203;-87
2020/12/12 02:20:11;;;;;;;41.35;19.52;;;3.30;99.90;;;;;;5110886;28;20179;-87
2020/12/12 02:22:40;;;;;;;44.70;22.13;;;3.40;99.90;;;;;;5110594;28;20275;-87
2020/12/12 02:25:08;;;;;;;50.55;23.27;;;3.40;99.90;;;;;;5111118;28;20543;-87
2020/12/12 02:27:34;;;;;;;47.75;20.83;;;3.40;99.90;;;;;;5110058;28;20184;-87
2020/12/12 02:30:07;;;;;;;44.57;20.10;;;3.40;99.90;;;;;;5110770;28;20184;-87
2020/12/12 02:32:41;;;;;;;52.08;24.40;;;3.30;99.90;;;;;;5110533;28;20211;-87
2020/12/12 02:35:10;;;;;;;62.17;24.20;;;3.30;99.90;;;;;;5110783;28;20303;-87
2020/12/12 02:37:41;;;;;;;50.53;22.75;;;3.40;99.90;;;;;;5110895;28;20180;-87
2020/12/12 02:40:07;;;;;;;59.40;25.00;;;3.30;99.90;;;;;;5110336;28;20585;-87
2020/12/12 02:42:33;;;;;;;50.97;22.60;;;3.20;99.90;;;;;;5110519;28;20184;-87
2020/12/12 02:45:10;;;;;;;66.43;23.93;;;3.20;99.90;;;;;;5110339;28;20175;-87
2020/12/12 02:47:36;;;;;;;37.75;18.50;;;3.20;99.90;;;;;;5109739;28;20699;-87
2020/12/12 02:50:12;;;;;;;44.50;20.80;;;3.20;99.90;;;;;;5107267;28;20637;-87
2020/12/12 02:52:42;;;;;;;43.17;21.38;;;3.30;99.90;;;;;;5090124;28;20674;-88
2020/12/12 02:55:12;;;;;;;46.85;21.67;;;3.20;99.90;;;;;;5089046;28;20219;-88
2020/12/12 02:57:44;;;;;;;47.67;20.63;;;3.20;99.90;;;;;;5089275;28;20172;-87
2020/12/12 03:00:16;;;;;;;44.70;21.67;;;3.30;99.90;;;;;;5089696;28;20180;-87
2020/12/12 03:02:44;;;;;;;52.80;24.60;;;3.30;99.90;;;;;;5089781;28;20553;-87
2020/12/12 03:05:11;;;;;;;42.15;21.08;;;3.30;99.90;;;;;;5089197;28;20180;-87
2020/12/12 03:07:48;;;;;;;49.83;22.05;;;3.30;99.90;;;;;;5089079;28;20191;-87
2020/12/12 03:10:26;;;;;;;40.97;19.38;;;3.30;99.90;;;;;;5088095;28;20283;-87
2020/12/12 03:12:57;;;;;;;46.20;20.73;;;3.30;99.90;;;;;;5088219;28;20452;-87
2020/12/12 03:15:23;;;;;;;40.72;19.63;;;3.30;99.90;;;;;;5088942;28;20676;-87
2020/12/12 03:17:49;;;;;;;36.87;16.90;;;3.30;99.90;;;;;;5089163;28;20184;-87
2020/12/12 03:20:18;;;;;;;33.67;15.90;;;3.20;99.90;;;;;;5089602;28;20727;-88
2020/12/12 03:22:43;;;;;;;39.78;17.20;;;3.30;99.90;;;;;;5088624;28;20188;-87
2020/12/12 03:25:12;;;;;;;35.57;16.00;;;3.30;99.90;;;;;;5088997;28;20180;-87
2020/12/12 03:27:37;;;;;;;37.13;15.65;;;3.30;99.90;;;;;;5089583;28;20192;-88
2020/12/12 03:30:06;;;;;;;33.27;14.90;;;3.30;99.90;;;;;;5088625;28;20187;-88
2020/12/12 03:32:32;;;;;;;34.50;15.77;;;3.30;99.90;;;;;;5089723;28;20193;-87
2020/12/12 03:35:03;;;;;;;32.03;13.47;;;3.20;99.90;;;;;;5089965;28;20737;-87
2020/12/12 03:37:32;;;;;;;44.55;17.15;;;3.20;99.90;;;;;;5088422;28;20271;-87
2020/12/12 03:40:00;;;;;;;32.92;15.88;;;3.30;99.90;;;;;;5087889;28;20550;-88
2020/12/12 03:42:28;;;;;;;28.70;14.73;;;3.20;99.90;;;;;;5088854;28;20534;-87
2020/12/12 03:44:54;;;;;;;36.85;15.70;;;3.20;99.90;;;;;;5092160;28;20180;-87
2020/12/12 03:47:19;;;;;;;34.73;15.57;;;3.20;99.90;;;;;;5108359;28;20653;-87
2020/12/12 03:50:00;;;;;;;33.93;15.47;;;3.20;99.90;;;;;;5108103;28;20260;-88
2020/12/12 03:52:32;;;;;;;36.00;16.50;;;3.20;99.90;;;;;;5089049;28;20242;-87
2020/12/12 03:55:00;;;;;;;28.70;14.38;;;3.20;99.90;;;;;;5087740;28;20219;-88
2020/12/12 03:57:25;;;;;;;31.73;15.75;;;3.20;99.90;;;;;;5088909;28;20177;-87
2020/12/12 03:59:57;;;;;;;42.50;14.27;;;3.20;99.90;;;;;;5086722;28;20643;-88
2020/12/12 04:02:34;;;;;;;27.30;14.77;;;3.20;99.90;;;;;;5086810;28;20640;-88
2020/12/12 04:05:08;;;;;;;33.45;15.93;;;3.20;99.90;;;;;;5087427;28;20180;-88
2020/12/12 04:07:37;;;;;;;35.70;15.45;;;3.20;99.90;;;;;;5088330;28;20178;-88
2020/12/12 04:10:06;;;;;;;39.13;16.08;;;3.20;99.90;;;;;;5088571;28;20184;-88
2020/12/12 04:12:32;;;;;;;31.05;13.45;;;3.20;99.90;;;;;;5086937;28;20244;-88
2020/12/12 04:15:06;;;;;;;35.97;17.50;;;3.30;99.90;;;;;;5087210;28;20262;-88
2020/12/12 04:17:44;;;;;;;38.47;16.80;;;3.30;99.90;;;;;;5086948;28;20430;-88
2020/12/12 04:20:12;;;;;;;35.25;14.88;;;3.30;99.90;;;;;;5087391;28;20188;-87
2020/12/12 04:22:38;;;;;;;34.65;17.42;;;3.30;99.90;;;;;;5087014;28;20184;-88
2020/12/12 04:25:03;;;;;;;36.20;14.30;;;3.30;99.90;;;;;;5087370;28;20271;-88
2020/12/12 04:27:30;;;;;;;41.37;17.63;;;3.30;99.90;;;;;;5088748;28;20180;-87
2020/12/12 04:29:59;;;;;;;32.88;17.73;;;3.30;99.90;;;;;;5087218;28;20436;-88
2020/12/12 04:32:25;;;;;;;35.10;17.58;;;3.30;99.90;;;;;;5087431;28;20185;-88
2020/12/12 04:34:53;;;;;;;31.67;18.10;;;3.30;99.90;;;;;;5085574;28;20317;-88
2020/12/12 04:37:22;;;;;;;38.40;19.40;;;3.30;99.90;;;;;;5087655;28;20177;-88
2020/12/12 04:39:48;;;;;;;38.13;18.55;;;3.30;99.90;;;;;;5087303;28;20179;-88
2020/12/12 04:42:19;;;;;;;40.13;18.23;;;3.30;99.90;;;;;;5087874;28;20181;-87
2020/12/12 04:44:45;;;;;;;36.03;18.80;;;3.30;99.90;;;;;;5092232;28;20251;-88
2020/12/12 04:47:18;;;;;;;44.65;20.50;;;3.30;99.90;;;;;;5106639;28;20270;-88
2020/12/12 04:49:47;;;;;;;42.83;17.20;;;3.30;99.90;;;;;;5106378;28;20228;-88
2020/12/12 04:52:15;;;;;;;39.08;18.85;;;3.30;99.90;;;;;;5086119;28;20200;-88
2020/12/12 04:54:46;;;;;;;42.10;17.83;;;3.20;99.90;;;;;;5086709;28;20207;-88
2020/12/12 04:57:32;;;;;;;43.10;20.27;;;3.20;99.90;;;;;;5086938;28;20259;-88
2020/12/12 05:00:09;;;;;;;50.80;19.48;;;3.20;99.90;;;;;;5086724;28;20223;-88
2020/12/12 05:02:35;;;;;;;37.78;18.73;;;3.20;99.90;;;;;;5087751;28;20173;-88
2020/12/12 05:05:01;;;;;;;49.13;20.90;;;3.20;99.90;;;;;;5088649;28;20241;-88
2020/12/12 05:07:32;;;;;;;47.63;20.10;;;3.30;99.90;;;;;;5086091;28;20409;-88
2020/12/12 05:10:02;;;;;;;41.25;17.88;;;3.30;99.90;;;;;;5088385;28;20219;-88
2020/12/12 05:12:28;;;;;;;51.05;20.13;;;3.30;99.90;;;;;;5087528;28;20237;-89
2020/12/12 05:14:53;;;;;;;40.10;18.87;;;3.30;99.90;;;;;;5091098;28;20216;-88
2020/12/12 05:17:20;;;;;;;40.47;17.33;;;3.30;99.90;;;;;;5090270;28;20233;-88
2020/12/12 05:19:51;;;;;;;34.72;16.85;;;3.30;99.90;;;;;;5091713;28;20168;-89
2020/12/12 05:22:17;;;;;;;37.40;18.80;;;3.30;99.90;;;;;;5088855;28;20608;-88
2020/12/12 05:24:58;;;;;;;43.13;18.40;;;3.40;99.90;;;;;;5090082;28;20189;-89
2020/12/12 05:27:26;;;;;;;35.58;17.38;;;3.40;99.90;;;;;;5090158;28;20913;-88
2020/12/12 05:29:58;;;;;;;34.88;17.45;;;3.40;99.90;;;;;;5091469;28;20609;-88
2020/12/12 05:32:29;;;;;;;45.08;18.67;;;3.40;99.90;;;;;;5090704;28;20165;-88
2020/12/12 05:34:55;;;;;;;37.35;18.02;;;3.50;99.90;;;;;;5091350;28;20223;-88
2020/12/12 05:37:25;;;;;;;38.70;18.13;;;3.50;99.90;;;;;;5090431;28;20180;-88
2020/12/12 05:39:51;;;;;;;41.17;20.15;;;3.50;99.90;;;;;;5089397;28;20179;-88
2020/12/12 05:42:26;;;;;;;44.70;21.43;;;3.50;99.90;;;;;;5089335;28;20556;-88
2020/12/12 05:44:53;;;;;;;41.20;20.58;;;3.50;99.90;;;;;;5095395;28;20244;-88
2020/12/12 05:47:19;;;;;;;48.65;21.35;;;3.50;99.90;;;;;;5109760;28;20208;-88
2020/12/12 05:49:48;;;;;;;46.45;20.77;;;3.50;99.90;;;;;;5107059;28;20279;-88
2020/12/12 05:52:21;;;;;;;38.15;19.48;;;3.50;99.90;;;;;;5087525;28;20269;-88
2020/12/12 05:54:53;;;;;;;45.83;20.75;;;3.50;99.90;;;;;;5088969;28;20302;-89
2020/12/12 05:57:20;;;;;;;44.33;20.65;;;3.50;99.90;;;;;;5089246;28;20655;-88
2020/12/12 05:59:46;;;;;;;41.85;20.95;;;3.50;99.90;;;;;;5090741;28;20655;-89
2020/12/12 06:02:16;;;;;;;51.47;21.10;;;3.50;99.90;;;;;;5089428;28;20667;-88
2020/12/12 06:04:49;;;;;;;52.63;22.20;;;3.50;99.90;;;;;;5089751;28;20180;-89
2020/12/12 06:07:31;;;;;;;47.65;21.50;;;3.50;99.90;;;;;;5089901;28;20192;-88
2020/12/12 06:10:04;;;;;;;46.30;22.00;;;3.50;99.90;;;;;;5090162;28;21103;-88
2020/12/12 06:12:39;;;;;;;55.78;25.58;;;3.60;99.90;;;;;;5087968;28;20236;-88
2020/12/12 06:15:16;;;;;;;43.38;25.10;;;3.60;99.90;;;;;;5089450;28;20243;-88
2020/12/12 06:18:06;;;;;;;43.53;21.88;;;3.60;99.90;;;;;;5090957;28;20243;-88
2020/12/12 06:20:34;;;;;;;41.08;21.90;;;3.60;99.90;;;;;;5089734;28;20184;-88
2020/12/12 06:23:04;;;;;;;43.28;22.00;;;3.60;99.90;;;;;;5089131;28;20184;-88
2020/12/12 06:25:35;;;;;;;46.63;22.60;;;3.60;99.90;;;;;;5089658;28;20214;-89
2020/12/12 06:28:03;;;;;;;46.47;22.30;;;3.60;99.90;;;;;;5089088;28;20527;-88
2020/12/12 06:30:30;;;;;;;60.72;29.25;;;3.60;99.90;;;;;;5089351;28;20184;-88
2020/12/12 06:33:10;;;;;;;44.97;22.98;;;3.60;99.90;;;;;;5089509;28;20268;-88
2020/12/12 06:35:38;;;;;;;52.22;27.23;;;3.60;99.90;;;;;;5088958;28;20215;-88
2020/12/12 06:38:29;;;;;;;43.53;24.10;;;3.60;99.90;;;;;;5088549;28;20263;-89
2020/12/12 06:40:59;;;;;;;47.28;26.83;;;3.60;99.90;;;;;;5088630;28;20212;-89
2020/12/12 06:43:38;;;;;;;54.50;30.27;;;3.70;99.90;;;;;;5089011;28;20161;-88
2020/12/12 06:46:07;;;;;;;43.58;21.40;;;3.60;99.90;;;;;;5104080;28;20282;-88
2020/12/12 06:48:36;;;;;;;43.97;21.35;;;3.60;99.90;;;;;;5109420;28;20236;-88
2020/12/12 06:51:02;;;;;;;54.58;26.15;;;3.70;99.90;;;;;;5109164;28;20548;-88
2020/12/12 06:53:35;;;;;;;48.13;26.08;;;3.70;99.90;;;;;;5110587;28;20271;-89
2020/12/12 06:56:14;;;;;;;50.20;27.33;;;3.70;99.90;;;;;;5108677;28;20176;-88
2020/12/12 06:58:41;;;;;;;55.22;29.60;;;3.70;99.90;;;;;;5109127;28;20194;-89
2020/12/12 07:01:36;;;;;;;52.05;23.80;;;3.70;99.90;;;;;;5107560;28;20184;-89
2020/12/12 07:04:09;;;;;;;55.70;33.72;;;3.70;99.90;;;;;;5100049;28;20245;-89
2020/12/12 07:06:35;;;;;;;60.80;40.45;;;3.70;99.90;;;;;;5109019;28;20164;-88
2020/12/12 07:09:06;;;;;;;43.75;23.05;;;3.70;99.90;;;;;;5108899;28;20666;-89
2020/12/12 07:11:36;;;;;;;53.92;25.15;;;3.70;99.90;;;;;;5108975;28;20202;-89
2020/12/12 07:14:02;;;;;;;49.30;23.90;;;3.70;99.90;;;;;;5108447;28;20241;-89
2020/12/12 07:16:31;;;;;;;39.92;19.75;;;3.70;99.90;;;;;;5108084;28;20488;-89
2020/12/12 07:18:57;;;;;;;44.67;20.38;;;3.70;99.90;;;;;;5108019;28;20266;-89
2020/12/12 07:21:29;;;;;;;50.45;21.85;;;3.70;99.90;;;;;;5108968;28;20196;-88
2020/12/12 07:23:54;;;;;;;37.88;19.65;;;3.70;99.90;;;;;;5108137;28;20182;-88
2020/12/12 07:26:29;;;;;;;47.50;24.40;;;3.70;99.90;;;;;;5109303;28;20188;-88
2020/12/12 07:28:54;;;;;;;43.67;21.75;;;3.70;99.90;;;;;;5109226;28;20159;-88
2020/12/12 07:31:30;;;;;;;47.30;19.47;;;3.70;99.90;;;;;;5107885;28;20183;-88
2020/12/12 07:34:03;;;;;;;55.05;29.80;;;3.80;99.90;;;;;;5107511;28;20203;-88
2020/12/12 07:36:34;;;;;;;60.45;34.13;;;3.70;99.90;;;;;;5107594;28;20455;-88
2020/12/12 07:39:07;;;;;;;46.35;24.73;;;3.80;99.90;;;;;;5109900;28;20156;-89
2020/12/12 07:41:45;;;;;;;48.38;22.02;;;3.80;99.90;;;;;;5108447;28;20276;-89
2020/12/12 07:44:23;;;;;;;48.25;22.10;;;3.80;99.90;;;;;;5107695;28;20278;-88
2020/12/12 07:47:02;;;;;;;47.70;27.77;;;3.70;99.90;;;;;;5088974;28;20172;-88
2020/12/12 07:49:29;;;;;;;61.92;34.75;;;3.70;99.90;;;;;;5086775;28;20275;-88
2020/12/12 07:52:12;;;;;;;76.15;37.45;;;3.80;99.90;;;;;;5105221;28;20271;-88
2020/12/12 07:54:49;;;;;;;56.60;25.48;;;3.80;99.90;;;;;;5107298;28;20213;-88
2020/12/12 07:57:15;;;;;;;58.67;30.25;;;3.80;99.90;;;;;;5108783;28;20168;-88
2020/12/12 07:59:42;;;;;;;50.22;26.33;;;3.90;99.90;;;;;;5107866;28;20175;-88
2020/12/12 08:02:15;;;;;;;65.60;26.15;;;3.90;99.90;;;;;;5107039;28;20711;-88
2020/12/12 08:04:53;;;;;;;81.13;38.10;;;3.90;99.90;;;;;;5108563;28;20580;-89
2020/12/12 08:07:24;;;;;;;97.40;54.47;;;3.80;99.90;;;;;;5107340;28;20187;-88
2020/12/12 08:09:55;;;;;;;86.20;42.85;;;3.90;99.90;;;;;;5107769;28;20652;-88
2020/12/12 08:12:30;;;;;;;86.00;44.40;;;3.90;99.90;;;;;;5107305;28;20219;-88
2020/12/12 08:15:16;;;;;;;85.38;41.05;;;3.90;99.90;;;;;;5109079;28;20264;-88
2020/12/12 08:17:47;;;;;;;76.78;38.38;;;3.90;99.90;;;;;;5107259;28;20175;-88
2020/12/12 08:20:23;;;;;;;83.18;41.17;;;3.90;99.90;;;;;;5107546;28;20636;-88
2020/12/12 08:22:49;;;;;;;123.25;85.10;;;3.90;99.90;;;;;;5106204;28;20233;-88
2020/12/12 08:25:20;;;;;;;130.33;88.40;;;4.00;99.90;;;;;;5108605;28;20179;-88
2020/12/12 08:27:46;;;;;;;88.30;48.55;;;4.00;99.90;;;;;;5108533;28;20444;-89
2020/12/12 08:30:20;;;;;;;109.50;57.50;;;4.00;99.90;;;;;;5108053;28;20180;-89
2020/12/12 08:32:54;;;;;;;80.38;40.95;;;4.00;99.90;;;;;;5108287;28;20599;-88
2020/12/12 08:35:25;;;;;;;72.10;32.60;;;4.00;99.90;;;;;;5107071;28;20549;-88
2020/12/12 08:37:55;;;;;;;69.38;29.98;;;4.10;99.90;;;;;;5106586;28;20553;-89
2020/12/12 08:40:32;;;;;;;67.05;33.30;;;4.10;99.90;;;;;;5108509;28;20168;-89
2020/12/12 08:43:02;;;;;;;64.22;32.17;;;4.10;99.90;;;;;;5106879;28;20717;-89
2020/12/12 08:45:36;;;;;;;83.72;38.90;;;4.20;99.90;;;;;;5107615;28;20636;-88
2020/12/12 08:48:15;;;;;;;75.88;32.67;;;4.20;99.90;;;;;;5111229;28;20658;-89
2020/12/12 08:51:02;;;;;;;74.35;34.42;;;4.20;99.90;;;;;;5111320;28;20620;-88
2020/12/12 08:53:37;;;;;;;76.00;32.95;;;4.30;99.90;;;;;;5111947;28;20176;-88
2020/12/12 08:56:38;;;;;;;62.35;26.83;;;4.30;99.90;;;;;;5110673;28;20187;-89
2020/12/12 08:59:09;;;;;;;53.35;22.90;;;4.30;99.90;;;;;;5111350;28;20179;-89
2020/12/12 09:01:44;;;;;;;55.58;24.30;;;4.30;99.90;;;;;;5111875;28;20176;-89
2020/12/12 09:04:20;;;;;;;51.22;22.88;;;4.40;99.90;;;;;;5111206;28;20218;-88
2020/12/12 09:06:49;;;;;;;58.03;25.67;;;4.30;99.90;;;;;;5111658;28;20191;-88
2020/12/12 09:09:24;;;;;;;45.25;20.10;;;4.30;99.90;;;;;;5112762;28;20222;-88
2020/12/12 09:12:11;;;;;;;57.28;26.30;;;4.40;99.90;;;;;;5109954;28;20207;-88
2020/12/12 09:14:44;;;;;;;64.50;27.02;;;4.30;99.90;;;;;;5110736;28;20222;-88
2020/12/12 09:17:14;;;;;;;57.72;25.45;;;4.30;99.90;;;;;;5111723;28;20215;-88
2020/12/12 09:19:42;;;;;;;70.88;30.73;;;4.30;99.90;;;;;;5111694;28;20176;-88
2020/12/12 09:22:14;;;;;;;68.22;32.28;;;4.30;99.90;;;;;;5111309;28;20648;-87
2020/12/12 09:24:39;;;;;;;74.40;32.88;;;4.30;99.90;;;;;;5111158;28;20188;-88
2020/12/12 09:27:05;;;;;;;77.37;30.83;;;4.40;99.90;;;;;;5110466;28;20635;-88
2020/12/12 09:29:31;;;;;;;72.47;28.50;;;4.40;99.90;;;;;;5111484;28;20829;-88
2020/12/12 09:32:02;;;;;;;66.53;29.43;;;4.40;99.90;;;;;;5111966;28;20212;-88
2020/12/12 09:34:28;;;;;;;74.03;31.35;;;4.40;99.90;;;;;;5110618;28;20294;-88
2020/12/12 09:36:54;;;;;;;68.33;30.80;;;4.50;99.90;;;;;;5110554;28;20784;-88
2020/12/12 09:39:22;;;;;;;69.43;29.33;;;4.50;99.90;;;;;;5111774;28;20179;-88
2020/12/12 09:41:48;;;;;;;56.25;28.13;;;4.50;99.90;;;;;;5110719;28;20390;-88
2020/12/12 09:44:22;;;;;;;60.70;30.57;;;4.50;99.90;;;;;;5110616;28;20260;-88
2020/12/12 09:46:57;;;;;;;60.67;29.15;;;4.50;99.90;;;;;;5111454;28;20172;-88
2020/12/12 09:49:23;;;;;;;54.83;26.27;;;4.50;99.90;;;;;;5110806;28;20183;-89
2020/12/12 09:51:49;;;;;;;55.60;23.60;;;4.60;99.90;;;;;;5095261;28;20563;-89
2020/12/12 09:54:15;;;;;;;59.53;26.77;;;4.60;99.90;;;;;;5089943;28;20517;-88
2020/12/12 09:56:41;;;;;;;49.43;25.53;;;4.70;99.90;;;;;;5091847;28;20172;-88
2020/12/12 09:59:17;;;;;;;49.47;25.37;;;4.70;99.90;;;;;;5089301;28;20489;-88
2020/12/12 10:01:47;;;;;;;57.05;26.58;;;4.70;99.90;;;;;;5090586;28;20176;-88
2020/12/12 10:04:13;;;;;;;56.17;29.23;;;4.70;99.90;;;;;;5089820;28;20191;-88
2020/12/12 10:06:42;;;;;;;44.83;24.80;;;4.70;99.90;;;;;;5090018;28;20180;-88
2020/12/12 10:09:07;;;;;;;52.20;29.30;;;4.70;99.90;;;;;;5089603;28;20979;-88
2020/12/12 10:11:36;;;;;;;52.57;29.83;;;4.70;99.90;;;;;;5091620;28;20256;-87
2020/12/12 10:14:04;;;;;;;51.45;28.67;;;4.70;99.90;;;;;;5089678;28;20224;-88
2020/12/12 10:16:36;;;;;;;51.72;31.77;;;4.70;99.90;;;;;;5088880;28;20193;-88
2020/12/12 10:19:11;;;;;;;43.95;26.20;;;4.80;99.90;;;;;;5091576;28;20153;-88
2020/12/12 10:21:39;;;;;;;44.40;23.42;;;4.90;99.90;;;;;;5092494;28;20160;-88
2020/12/12 10:24:05;;;;;;;39.92;23.60;;;4.80;99.90;;;;;;5090495;28;20176;-87
2020/12/12 10:26:33;;;;;;;39.70;21.07;;;4.90;99.90;;;;;;5089510;28;20912;-88
2020/12/12 10:28:59;;;;;;;41.35;22.35;;;4.90;99.90;;;;;;5090852;28;20231;-89
2020/12/12 10:31:33;;;;;;;41.43;21.07;;;5.00;99.90;;;;;;5090971;28;20210;-89
2020/12/12 10:34:02;;;;;;;39.20;22.35;;;5.00;99.90;;;;;;5089778;28;20206;-89
2020/12/12 10:36:30;;;;;;;39.33;21.95;;;5.00;99.90;;;;;;5090850;28;20248;-89
2020/12/12 10:38:56;;;;;;;41.00;24.63;;;5.00;99.90;;;;;;5089678;28;20259;-88
2020/12/12 10:41:23;;;;;;;42.47;26.40;;;5.00;99.90;;;;;;5089826;28;20319;-89
2020/12/12 10:43:55;;;;;;;50.25;27.27;;;5.00;99.90;;;;;;5091964;28;20168;-89
2020/12/12 10:46:23;;;;;;;50.22;25.73;;;5.10;99.90;;;;;;5108314;28;20176;-88
2020/12/12 10:48:51;;;;;;;42.72;23.65;;;5.10;99.90;;;;;;5109842;28;20697;-88
2020/12/12 10:51:17;;;;;;;40.70;21.65;;;5.10;99.90;;;;;;5097774;28;20636;-89
2020/12/12 10:53:52;;;;;;;38.10;22.40;;;5.10;99.90;;;;;;5089975;28;20180;-89
2020/12/12 10:56:21;;;;;;;41.13;22.02;;;5.10;99.90;;;;;;5089736;28;20624;-89
2020/12/12 10:58:52;;;;;;;40.95;21.98;;;5.10;99.90;;;;;;5091392;28;20616;-88
2020/12/12 11:01:17;;;;;;;37.97;23.65;;;5.10;99.90;;;;;;5090220;28;20177;-89
2020/12/12 11:03:46;;;;;;;44.40;23.87;;;5.10;99.90;;;;;;5090134;28;20183;-89
2020/12/12 11:06:14;;;;;;;41.55;23.50;;;5.10;99.90;;;;;;5088705;28;20173;-88
2020/12/12 11:08:40;;;;;;;37.50;19.58;;;5.10;99.90;;;;;;5089917;28;20188;-89
2020/12/12 11:11:20;;;;;;;39.03;21.57;;;5.10;99.90;;;;;;5091072;28;20168;-88
2020/12/12 11:13:58;;;;;;;39.25;22.55;;;5.10;99.90;;;;;;5089307;28;20239;-88
2020/12/12 11:16:27;;;;;;;40.92;24.80;;;5.00;99.90;;;;;;5089033;28;20275;-88
2020/12/12 11:18:53;;;;;;;41.22;23.17;;;5.10;99.90;;;;;;5090567;28;20196;-84
2020/12/12 11:21:26;;;;;;;41.75;24.35;;;5.10;99.90;;;;;;5095273;28;20192;-84
2020/12/12 11:23:54;;;;;;;38.42;22.42;;;5.10;99.90;;;;;;5106690;28;20178;-87
2020/12/12 11:26:23;;;;;;;40.65;25.48;;;5.10;99.90;;;;;;5103610;28;20179;-87
2020/12/12 11:28:52;;;;;;;46.17;25.85;;;5.10;99.90;;;;;;5095101;28;20168;-87
2020/12/12 11:31:23;;;;;;;43.42;24.13;;;5.20;99.90;;;;;;5111413;28;20180;-87
2020/12/12 11:33:59;;;;;;;51.08;29.60;;;5.10;99.90;;;;;;5106956;28;20164;-84
2020/12/12 11:45:04;;;;;;;41.53;25.00;;;5.30;99.90;;;;;;5108917;28;20266;-84
2020/12/12 11:47:35;;;;;;;40.53;24.83;;;5.30;99.90;;;;;;5110171;28;20175;-84
2020/12/12 11:50:07;;;;;;;33.97;21.38;;;5.30;99.90;;;;;;5107345;28;20190;-83
2020/12/12 11:52:42;;;;;;;40.88;24.55;;;5.40;99.90;;;;;;5109193;28;20192;-83
2020/12/12 11:55:11;;;;;;;47.20;29.20;;;5.30;99.90;;;;;;5109554;28;20662;-84
2020/12/12 11:57:37;;;;;;;39.40;25.08;;;5.40;99.90;;;;;;5109470;28;20168;-85
2020/12/12 12:00:11;;;;;;;39.83;26.60;;;5.40;99.90;;;;;;5110660;28;20268;-82
2020/12/12 12:03:00;;;;;;;44.90;27.15;;;5.30;99.90;;;;;;5108949;28;20412;-82
2020/12/12 12:05:32;;;;;;;46.40;30.35;;;5.30;99.90;;;;;;5108488;28;20186;-84
2020/12/12 12:08:00;;;;;;;49.88;27.80;;;5.30;99.90;;;;;;5109508;28;20180;-82
2020/12/12 12:10:42;;;;;;;48.85;27.65;;;5.30;99.90;;;;;;5110968;28;20180;-82
2020/12/12 12:13:14;;;;;;;51.63;27.33;;;5.20;99.90;;;;;;5108138;28;20220;-85
2020/12/12 12:15:48;;;;;;;52.47;28.95;;;5.20;99.90;;;;;;5107105;28;20230;-83
2020/12/12 12:18:20;;;;;;;57.33;32.50;;;5.30;99.90;;;;;;5109077;28;20178;-83
2020/12/12 12:20:45;;;;;;;61.28;37.97;;;5.30;99.90;;;;;;5111496;28;20615;-83
2020/12/12 12:23:11;;;;;;;50.83;35.87;;;5.30;99.90;;;;;;5111060;28;20183;-82
2020/12/12 12:25:42;;;;;;;47.47;28.97;;;5.30;99.90;;;;;;5111507;28;20515;-83
2020/12/12 12:28:08;;;;;;;45.15;27.90;;;5.30;99.90;;;;;;5110437;28;20188;-82
2020/12/12 12:30:36;;;;;;;45.30;27.23;;;5.30;99.90;;;;;;5111735;28;20229;-84
2020/12/12 12:33:05;;;;;;;43.90;27.65;;;5.30;99.90;;;;;;5111237;28;20186;-83
2020/12/12 12:35:39;;;;;;;45.13;28.27;;;5.30;99.90;;;;;;5110959;28;20215;-82
2020/12/12 12:38:08;;;;;;;47.30;29.50;;;5.40;99.90;;;;;;5111521;28;20175;-84
2020/12/12 12:40:42;;;;;;;49.75;30.08;;;5.30;99.90;;;;;;5110862;28;20183;-84
2020/12/12 12:43:11;;;;;;;44.78;30.40;;;5.30;99.90;;;;;;5103997;28;20191;-83
2020/12/12 12:45:39;;;;;;;52.10;30.13;;;5.30;99.90;;;;;;5106423;28;20211;-83
2020/12/12 12:48:08;;;;;;;58.47;31.67;;;5.30;99.90;;;;;;5110709;28;20184;-83
2020/12/12 12:50:34;;;;;;;61.95;34.20;;;5.30;99.90;;;;;;5109300;28;20183;-83
2020/12/12 12:53:16;;;;;;;46.17;27.58;;;5.30;99.90;;;;;;5111241;28;20180;-86
2020/12/12 12:55:45;;;;;;;40.15;22.65;;;5.30;99.90;;;;;;5112584;28;20307;-84
2020/12/12 12:58:13;;;;;;;41.30;23.88;;;5.20;99.90;;;;;;5111613;28;20233;-84
2020/12/12 13:00:42;;;;;;;41.42;24.35;;;5.20;99.90;;;;;;5110699;28;20585;-85